Terminal Aerodrome Forecast
Issued by NWS Quad Cities IA IL

Home | Current Version | Previous Version | Text Only | Print | Product List | Glossary On
Versions: 1 2 3 4 5 6 7 8 9 10 11 12 13 14 15 16
000
FTUS43 KDVN 260520
TAFMLI
TAF
KMLI 260520Z 2606/2706 16005KT P6SM BKN060
     FM260900 20005KT P6SM VCSH OVC040
     FM261400 19010KT P6SM BKN050 PROB30 2700/2704 4SM TSRA
      BKN040CB=

USA.gov is the U.S. government's official web portal to all federal, state and local government web resources and services.